sensor_id;sensor_type;location;lat;lon;timestamp;P1;durP1;ratioP1;P2;durP2;ratioP2
71083;SDS011;58741;52.672;13.548;2023-01-24T00:00:54;8.02;;;4.35;;
71083;SDS011;58741;52.672;13.548;2023-01-24T00:03:20;8.75;;;4.47;;
71083;SDS011;58741;52.672;13.548;2023-01-24T00:05:46;7.47;;;4.50;;
71083;SDS011;58741;52.672;13.548;2023-01-24T00:08:13;12.02;;;3.85;;
71083;SDS011;58741;52.672;13.548;2023-01-24T00:10:44;4.90;;;3.28;;
71083;SDS011;58741;52.672;13.548;2023-01-24T00:13:10;6.68;;;3.53;;
71083;SDS011;58741;52.672;13.548;2023-01-24T00:15:37;9.10;;;3.35;;
71083;SDS011;58741;52.672;13.548;2023-01-24T00:18:03;7.80;;;3.78;;
71083;SDS011;58741;52.672;13.548;2023-01-24T00:20:29;3.72;;;2.58;;
71083;SDS011;58741;52.672;13.548;2023-01-24T00:22:54;3.65;;;2.47;;
71083;SDS011;58741;52.672;13.548;2023-01-24T00:25:20;6.75;;;2.80;;
71083;SDS011;58741;52.672;13.548;2023-01-24T00:27:45;4.43;;;2.85;;
71083;SDS011;58741;52.672;13.548;2023-01-24T00:30:11;6.38;;;3.05;;
71083;SDS011;58741;52.672;13.548;2023-01-24T00:32:37;2.95;;;1.85;;
71083;SDS011;58741;52.672;13.548;2023-01-24T00:35:03;3.35;;;1.95;;
71083;SDS011;58741;52.672;13.548;2023-01-24T00:37:29;4.88;;;2.40;;
71083;SDS011;58741;52.672;13.548;2023-01-24T00:39:55;6.35;;;2.35;;
71083;SDS011;58741;52.672;13.548;2023-01-24T00:42:21;3.55;;;2.20;;
71083;SDS011;58741;52.672;13.548;2023-01-24T00:44:46;2.95;;;2.20;;
71083;SDS011;58741;52.672;13.548;2023-01-24T00:47:12;4.15;;;2.53;;
71083;SDS011;58741;52.672;13.548;2023-01-24T00:49:37;4.18;;;2.50;;
71083;SDS011;58741;52.672;13.548;2023-01-24T00:52:03;6.20;;;2.28;;
71083;SDS011;58741;52.672;13.548;2023-01-24T00:54:29;4.28;;;2.80;;
71083;SDS011;58741;52.672;13.548;2023-01-24T00:56:54;7.70;;;2.63;;
71083;SDS011;58741;52.672;13.548;2023-01-24T00:59:20;4.78;;;2.72;;
71083;SDS011;58741;52.672;13.548;2023-01-24T01:01:45;3.20;;;2.55;;
71083;SDS011;58741;52.672;13.548;2023-01-24T01:04:11;4.93;;;2.70;;
71083;SDS011;58741;52.672;13.548;2023-01-24T01:06:36;2.05;;;1.25;;
71083;SDS011;58741;52.672;13.548;2023-01-24T01:09:03;3.50;;;1.90;;
71083;SDS011;58741;52.672;13.548;2023-01-24T01:11:28;6.00;;;1.95;;
71083;SDS011;58741;52.672;13.548;2023-01-24T01:13:57;2.90;;;2.13;;
71083;SDS011;58741;52.672;13.548;2023-01-24T01:16:23;2.78;;;1.58;;
71083;SDS011;58741;52.672;13.548;2023-01-24T01:18:50;4.30;;;2.25;;
71083;SDS011;58741;52.672;13.548;2023-01-24T01:21:19;5.32;;;1.90;;
71083;SDS011;58741;52.672;13.548;2023-01-24T01:23:46;4.30;;;2.42;;
71083;SDS011;58741;52.672;13.548;2023-01-24T01:26:13;2.05;;;1.75;;
71083;SDS011;58741;52.672;13.548;2023-01-24T01:28:42;3.33;;;2.15;;
71083;SDS011;58741;52.672;13.548;2023-01-24T01:31:08;2.70;;;1.95;;
71083;SDS011;58741;52.672;13.548;2023-01-24T01:33:34;3.90;;;2.03;;
71083;SDS011;58741;52.672;13.548;2023-01-24T01:35:59;5.88;;;2.58;;
71083;SDS011;58741;52.672;13.548;2023-01-24T01:38:25;2.70;;;2.03;;
71083;SDS011;58741;52.672;13.548;2023-01-24T01:40:53;1.60;;;1.50;;
71083;SDS011;58741;52.672;13.548;2023-01-24T01:43:19;4.05;;;1.83;;
71083;SDS011;58741;52.672;13.548;2023-01-24T01:45:47;3.10;;;2.30;;
71083;SDS011;58741;52.672;13.548;2023-01-24T01:50:50;3.42;;;2.15;;
71083;SDS011;58741;52.672;13.548;2023-01-24T01:53:33;2.03;;;1.13;;
71083;SDS011;58741;52.672;13.548;2023-01-24T01:56:05;4.20;;;2.35;;
71083;SDS011;58741;52.672;13.548;2023-01-24T01:58:37;4.85;;;2.70;;
71083;SDS011;58741;52.672;13.548;2023-01-24T02:01:05;3.42;;;1.98;;
71083;SDS011;58741;52.672;13.548;2023-01-24T02:03:39;4.32;;;2.28;;
71083;SDS011;58741;52.672;13.548;2023-01-24T02:06:13;2.55;;;1.75;;
71083;SDS011;58741;52.672;13.548;2023-01-24T02:08:46;2.15;;;1.73;;
71083;SDS011;58741;52.672;13.548;2023-01-24T02:11:16;3.42;;;1.98;;
71083;SDS011;58741;52.672;13.548;2023-01-24T02:14:01;2.47;;;1.25;;
71083;SDS011;58741;52.672;13.548;2023-01-24T02:16:45;1.67;;;1.38;;
71083;SDS011;58741;52.672;13.548;2023-01-24T02:19:14;3.40;;;2.17;;
71083;SDS011;58741;52.672;13.548;2023-01-24T02:22:07;3.92;;;1.98;;
71083;SDS011;58741;52.672;13.548;2023-01-24T02:24:51;3.67;;;1.97;;
71083;SDS011;58741;52.672;13.548;2023-01-24T02:27:24;3.30;;;1.80;;
71083;SDS011;58741;52.672;13.548;2023-01-24T02:29:53;3.25;;;1.83;;
71083;SDS011;58741;52.672;13.548;2023-01-24T02:32:20;4.22;;;1.77;;
71083;SDS011;58741;52.672;13.548;2023-01-24T02:34:46;3.25;;;2.10;;
71083;SDS011;58741;52.672;13.548;2023-01-24T02:37:16;1.42;;;1.23;;
71083;SDS011;58741;52.672;13.548;2023-01-24T02:39:47;1.58;;;1.30;;
71083;SDS011;58741;52.672;13.548;2023-01-24T02:42:21;3.53;;;1.83;;
71083;SDS011;58741;52.672;13.548;2023-01-24T02:45:12;1.92;;;1.52;;
71083;SDS011;58741;52.672;13.548;2023-01-24T02:47:44;4.65;;;2.20;;
71083;SDS011;58741;52.672;13.548;2023-01-24T02:50:16;1.52;;;1.42;;
71083;SDS011;58741;52.672;13.548;2023-01-24T02:52:43;3.75;;;1.90;;
71083;SDS011;58741;52.672;13.548;2023-01-24T02:55:28;2.88;;;1.83;;
71083;SDS011;58741;52.672;13.548;2023-01-24T02:57:55;2.10;;;1.88;;
71083;SDS011;58741;52.672;13.548;2023-01-24T03:00:38;3.00;;;1.45;;
71083;SDS011;58741;52.672;13.548;2023-01-24T03:03:06;4.72;;;2.22;;
71083;SDS011;58741;52.672;13.548;2023-01-24T03:05:33;3.85;;;2.38;;
71083;SDS011;58741;52.672;13.548;2023-01-24T03:08:29;2.88;;;1.40;;
71083;SDS011;58741;52.672;13.548;2023-01-24T03:10:57;1.80;;;1.30;;
71083;SDS011;58741;52.672;13.548;2023-01-24T03:13:24;3.17;;;1.50;;
71083;SDS011;58741;52.672;13.548;2023-01-24T03:16:12;1.88;;;1.67;;
71083;SDS011;58741;52.672;13.548;2023-01-24T03:18:56;3.42;;;1.88;;
71083;SDS011;58741;52.672;13.548;2023-01-24T03:21:41;2.83;;;1.48;;
71083;SDS011;58741;52.672;13.548;2023-01-24T03:24:25;4.50;;;2.30;;
71083;SDS011;58741;52.672;13.548;2023-01-24T03:27:10;1.57;;;1.47;;
71083;SDS011;58741;52.672;13.548;2023-01-24T03:29:55;3.30;;;1.98;;
71083;SDS011;58741;52.672;13.548;2023-01-24T03:32:39;2.15;;;1.52;;
71083;SDS011;58741;52.672;13.548;2023-01-24T03:35:24;1.42;;;1.27;;
71083;SDS011;58741;52.672;13.548;2023-01-24T03:37:50;2.50;;;1.58;;
71083;SDS011;58741;52.672;13.548;2023-01-24T03:40:34;5.57;;;1.92;;
71083;SDS011;58741;52.672;13.548;2023-01-24T03:43:00;2.53;;;1.52;;
71083;SDS011;58741;52.672;13.548;2023-01-24T03:45:32;2.83;;;1.60;;
71083;SDS011;58741;52.672;13.548;2023-01-24T03:48:00;3.20;;;2.03;;
71083;SDS011;58741;52.672;13.548;2023-01-24T03:50:30;3.00;;;2.25;;
71083;SDS011;58741;52.672;13.548;2023-01-24T03:53:17;2.72;;;2.13;;
71083;SDS011;58741;52.672;13.548;2023-01-24T03:55:46;4.00;;;1.70;;
71083;SDS011;58741;52.672;13.548;2023-01-24T03:58:15;2.90;;;1.67;;
71083;SDS011;58741;52.672;13.548;2023-01-24T04:00:41;2.00;;;1.73;;
71083;SDS011;58741;52.672;13.548;2023-01-24T04:03:23;3.85;;;2.15;;
71083;SDS011;58741;52.672;13.548;2023-01-24T04:05:49;5.65;;;2.00;;
71083;SDS011;58741;52.672;13.548;2023-01-24T04:08:16;5.53;;;2.47;;
71083;SDS011;58741;52.672;13.548;2023-01-24T04:10:42;3.17;;;2.15;;
71083;SDS011;58741;52.672;13.548;2023-01-24T04:13:09;2.58;;;1.85;;
71083;SDS011;58741;52.672;13.548;2023-01-24T04:15:35;3.53;;;2.50;;
71083;SDS011;58741;52.672;13.548;2023-01-24T04:18:22;2.42;;;1.45;;
71083;SDS011;58741;52.672;13.548;2023-01-24T04:20:48;4.45;;;2.30;;
71083;SDS011;58741;52.672;13.548;2023-01-24T04:23:14;4.25;;;2.15;;
71083;SDS011;58741;52.672;13.548;2023-01-24T04:25:40;5.43;;;2.72;;
71083;SDS011;58741;52.672;13.548;2023-01-24T04:28:05;3.83;;;2.08;;
71083;SDS011;58741;52.672;13.548;2023-01-24T04:30:33;2.85;;;2.17;;
71083;SDS011;58741;52.672;13.548;2023-01-24T04:33:00;4.18;;;1.95;;
71083;SDS011;58741;52.672;13.548;2023-01-24T04:35:27;4.18;;;2.75;;
71083;SDS011;58741;52.672;13.548;2023-01-24T04:38:01;3.85;;;2.53;;
71083;SDS011;58741;52.672;13.548;2023-01-24T04:43:33;3.08;;;2.40;;
71083;SDS011;58741;52.672;13.548;2023-01-24T04:45:59;4.85;;;2.40;;
71083;SDS011;58741;52.672;13.548;2023-01-24T04:51:00;4.35;;;2.03;;
71083;SDS011;58741;52.672;13.548;2023-01-24T04:53:27;5.13;;;2.20;;
71083;SDS011;58741;52.672;13.548;2023-01-24T04:56:00;3.63;;;2.60;;
71083;SDS011;58741;52.672;13.548;2023-01-24T04:58:27;2.97;;;2.05;;
71083;SDS011;58741;52.672;13.548;2023-01-24T05:00:53;2.88;;;1.98;;
71083;SDS011;58741;52.672;13.548;2023-01-24T05:03:19;2.70;;;1.83;;
71083;SDS011;58741;52.672;13.548;2023-01-24T05:05:49;4.35;;;2.28;;
71083;SDS011;58741;52.672;13.548;2023-01-24T05:08:18;3.50;;;2.10;;
71083;SDS011;58741;52.672;13.548;2023-01-24T05:10:44;2.65;;;2.20;;
71083;SDS011;58741;52.672;13.548;2023-01-24T05:13:09;3.35;;;2.33;;
71083;SDS011;58741;52.672;13.548;2023-01-24T05:15:36;7.18;;;2.72;;
71083;SDS011;58741;52.672;13.548;2023-01-24T05:18:02;6.10;;;2.10;;
71083;SDS011;58741;52.672;13.548;2023-01-24T05:20:28;4.30;;;2.22;;
71083;SDS011;58741;52.672;13.548;2023-01-24T05:22:56;2.75;;;1.85;;
71083;SDS011;58741;52.672;13.548;2023-01-24T05:25:23;3.35;;;2.25;;
71083;SDS011;58741;52.672;13.548;2023-01-24T05:27:50;5.13;;;2.10;;
71083;SDS011;58741;52.672;13.548;2023-01-24T05:30:16;2.63;;;1.98;;
71083;SDS011;58741;52.672;13.548;2023-01-24T05:32:43;4.47;;;2.20;;
71083;SDS011;58741;52.672;13.548;2023-01-24T05:35:08;2.78;;;2.10;;
71083;SDS011;58741;52.672;13.548;2023-01-24T05:37:37;4.55;;;2.05;;
71083;SDS011;58741;52.672;13.548;2023-01-24T05:40:06;4.25;;;2.10;;
71083;SDS011;58741;52.672;13.548;2023-01-24T05:42:33;3.70;;;1.98;;
71083;SDS011;58741;52.672;13.548;2023-01-24T05:44:58;3.13;;;1.92;;
71083;SDS011;58741;52.672;13.548;2023-01-24T05:47:24;2.90;;;1.90;;
71083;SDS011;58741;52.672;13.548;2023-01-24T05:49:49;3.55;;;2.20;;
71083;SDS011;58741;52.672;13.548;2023-01-24T05:52:16;3.88;;;2.15;;
71083;SDS011;58741;52.672;13.548;2023-01-24T05:54:50;3.50;;;2.03;;
71083;SDS011;58741;52.672;13.548;2023-01-24T05:57:24;3.85;;;2.05;;
71083;SDS011;58741;52.672;13.548;2023-01-24T06:00:08;2.58;;;1.40;;
71083;SDS011;58741;52.672;13.548;2023-01-24T06:02:50;4.28;;;2.03;;
71083;SDS011;58741;52.672;13.548;2023-01-24T06:05:16;4.40;;;2.22;;
71083;SDS011;58741;52.672;13.548;2023-01-24T06:07:42;2.45;;;1.80;;
71083;SDS011;58741;52.672;13.548;2023-01-24T06:10:07;4.53;;;2.38;;
71083;SDS011;58741;52.672;13.548;2023-01-24T06:12:45;2.83;;;1.83;;
71083;SDS011;58741;52.672;13.548;2023-01-24T06:15:11;4.13;;;2.42;;
71083;SDS011;58741;52.672;13.548;2023-01-24T06:17:37;3.30;;;2.15;;
71083;SDS011;58741;52.672;13.548;2023-01-24T06:20:03;5.00;;;2.47;;
71083;SDS011;58741;52.672;13.548;2023-01-24T06:22:31;9.77;;;1.88;;
71083;SDS011;58741;52.672;13.548;2023-01-24T06:25:09;4.88;;;2.17;;
71083;SDS011;58741;52.672;13.548;2023-01-24T06:27:45;4.57;;;2.55;;
71083;SDS011;58741;52.672;13.548;2023-01-24T06:30:11;5.93;;;2.83;;
71083;SDS011;58741;52.672;13.548;2023-01-24T06:32:52;7.22;;;2.88;;
71083;SDS011;58741;52.672;13.548;2023-01-24T06:35:36;10.30;;;2.38;;
71083;SDS011;58741;52.672;13.548;2023-01-24T06:38:17;4.07;;;2.35;;
71083;SDS011;58741;52.672;13.548;2023-01-24T06:40:48;5.00;;;2.75;;
71083;SDS011;58741;52.672;13.548;2023-01-24T06:43:17;9.68;;;2.95;;
71083;SDS011;58741;52.672;13.548;2023-01-24T06:45:43;6.53;;;3.28;;
71083;SDS011;58741;52.672;13.548;2023-01-24T06:48:08;5.75;;;3.13;;
71083;SDS011;58741;52.672;13.548;2023-01-24T06:50:34;6.88;;;2.60;;
71083;SDS011;58741;52.672;13.548;2023-01-24T06:53:00;7.13;;;3.22;;
71083;SDS011;58741;52.672;13.548;2023-01-24T06:55:25;9.20;;;3.03;;
71083;SDS011;58741;52.672;13.548;2023-01-24T06:57:57;8.57;;;2.85;;
71083;SDS011;58741;52.672;13.548;2023-01-24T07:00:24;6.10;;;2.95;;
71083;SDS011;58741;52.672;13.548;2023-01-24T07:02:59;5.22;;;2.90;;
71083;SDS011;58741;52.672;13.548;2023-01-24T07:05:32;6.30;;;2.63;;
71083;SDS011;58741;52.672;13.548;2023-01-24T07:07:59;8.35;;;4.00;;
71083;SDS011;58741;52.672;13.548;2023-01-24T07:10:25;4.50;;;3.10;;
71083;SDS011;58741;52.672;13.548;2023-01-24T07:12:50;8.82;;;3.83;;
71083;SDS011;58741;52.672;13.548;2023-01-24T07:15:16;7.20;;;3.28;;
71083;SDS011;58741;52.672;13.548;2023-01-24T07:17:42;3.95;;;2.42;;
71083;SDS011;58741;52.672;13.548;2023-01-24T07:20:09;11.27;;;4.22;;
71083;SDS011;58741;52.672;13.548;2023-01-24T07:22:36;17.90;;;4.32;;
71083;SDS011;58741;52.672;13.548;2023-01-24T07:25:03;15.27;;;4.78;;
71083;SDS011;58741;52.672;13.548;2023-01-24T07:27:49;10.88;;;5.00;;
71083;SDS011;58741;52.672;13.548;2023-01-24T07:30:15;10.95;;;5.15;;
71083;SDS011;58741;52.672;13.548;2023-01-24T07:32:41;14.27;;;6.03;;
71083;SDS011;58741;52.672;13.548;2023-01-24T07:35:06;12.25;;;5.80;;
71083;SDS011;58741;52.672;13.548;2023-01-24T07:37:32;13.32;;;5.07;;
71083;SDS011;58741;52.672;13.548;2023-01-24T07:39:58;15.77;;;5.22;;
71083;SDS011;58741;52.672;13.548;2023-01-24T07:42:23;19.02;;;6.13;;
71083;SDS011;58741;52.672;13.548;2023-01-24T07:44:49;16.05;;;5.72;;
71083;SDS011;58741;52.672;13.548;2023-01-24T07:47:15;14.48;;;6.32;;
71083;SDS011;58741;52.672;13.548;2023-01-24T07:49:40;11.35;;;5.43;;
71083;SDS011;58741;52.672;13.548;2023-01-24T07:52:06;11.50;;;5.55;;
71083;SDS011;58741;52.672;13.548;2023-01-24T07:54:32;16.15;;;7.07;;
71083;SDS011;58741;52.672;13.548;2023-01-24T07:56:58;13.30;;;6.97;;
71083;SDS011;58741;52.672;13.548;2023-01-24T07:59:24;18.23;;;6.90;;
71083;SDS011;58741;52.672;13.548;2023-01-24T08:01:51;16.42;;;6.78;;
71083;SDS011;58741;52.672;13.548;2023-01-24T08:04:16;17.27;;;7.20;;
71083;SDS011;58741;52.672;13.548;2023-01-24T08:06:42;19.63;;;6.30;;
71083;SDS011;58741;52.672;13.548;2023-01-24T08:09:27;14.38;;;6.63;;
71083;SDS011;58741;52.672;13.548;2023-01-24T08:11:54;19.58;;;7.13;;
71083;SDS011;58741;52.672;13.548;2023-01-24T08:14:19;21.77;;;6.57;;
71083;SDS011;58741;52.672;13.548;2023-01-24T08:16:47;14.20;;;5.15;;
71083;SDS011;58741;52.672;13.548;2023-01-24T08:19:13;15.07;;;6.50;;
71083;SDS011;58741;52.672;13.548;2023-01-24T08:21:38;13.38;;;5.47;;
71083;SDS011;58741;52.672;13.548;2023-01-24T08:24:04;16.08;;;6.95;;
71083;SDS011;58741;52.672;13.548;2023-01-24T08:26:30;25.38;;;8.20;;
71083;SDS011;58741;52.672;13.548;2023-01-24T08:28:55;14.80;;;6.78;;
71083;SDS011;58741;52.672;13.548;2023-01-24T08:31:21;25.40;;;7.70;;
71083;SDS011;58741;52.672;13.548;2023-01-24T08:33:46;15.90;;;5.97;;
71083;SDS011;58741;52.672;13.548;2023-01-24T08:36:12;23.42;;;7.30;;
71083;SDS011;58741;52.672;13.548;2023-01-24T08:38:38;14.00;;;5.78;;
71083;SDS011;58741;52.672;13.548;2023-01-24T08:41:03;13.05;;;6.10;;
71083;SDS011;58741;52.672;13.548;2023-01-24T08:43:30;11.35;;;6.60;;
71083;SDS011;58741;52.672;13.548;2023-01-24T08:45:55;20.23;;;8.57;;
71083;SDS011;58741;52.672;13.548;2023-01-24T08:48:21;13.13;;;5.88;;
71083;SDS011;58741;52.672;13.548;2023-01-24T08:50:47;21.48;;;7.00;;
71083;SDS011;58741;52.672;13.548;2023-01-24T08:53:12;25.45;;;5.80;;
71083;SDS011;58741;52.672;13.548;2023-01-24T08:55:39;11.63;;;5.63;;
71083;SDS011;58741;52.672;13.548;2023-01-24T08:58:05;20.23;;;7.35;;
71083;SDS011;58741;52.672;13.548;2023-01-24T09:00:31;21.77;;;6.07;;
71083;SDS011;58741;52.672;13.548;2023-01-24T09:02:57;17.05;;;6.32;;
71083;SDS011;58741;52.672;13.548;2023-01-24T09:05:27;21.48;;;6.93;;
71083;SDS011;58741;52.672;13.548;2023-01-24T09:07:55;15.18;;;5.35;;
71083;SDS011;58741;52.672;13.548;2023-01-24T09:10:22;13.50;;;5.13;;
71083;SDS011;58741;52.672;13.548;2023-01-24T09:12:48;12.70;;;6.57;;
71083;SDS011;58741;52.672;13.548;2023-01-24T09:15:13;15.70;;;5.57;;
71083;SDS011;58741;52.672;13.548;2023-01-24T09:17:39;11.02;;;5.47;;
71083;SDS011;58741;52.672;13.548;2023-01-24T09:20:05;14.43;;;6.60;;
71083;SDS011;58741;52.672;13.548;2023-01-24T09:22:31;12.77;;;6.20;;
71083;SDS011;58741;52.672;13.548;2023-01-24T09:24:57;17.17;;;6.32;;
71083;SDS011;58741;52.672;13.548;2023-01-24T09:27:22;19.52;;;6.95;;
71083;SDS011;58741;52.672;13.548;2023-01-24T09:29:48;16.45;;;5.55;;
71083;SDS011;58741;52.672;13.548;2023-01-24T09:32:13;8.77;;;4.28;;
71083;SDS011;58741;52.672;13.548;2023-01-24T09:34:41;12.93;;;5.53;;
71083;SDS011;58741;52.672;13.548;2023-01-24T09:37:11;14.02;;;4.57;;
71083;SDS011;58741;52.672;13.548;2023-01-24T09:39:40;14.25;;;4.43;;
71083;SDS011;58741;52.672;13.548;2023-01-24T09:42:09;17.25;;;5.22;;
71083;SDS011;58741;52.672;13.548;2023-01-24T09:44:39;9.60;;;5.20;;
71083;SDS011;58741;52.672;13.548;2023-01-24T09:47:14;12.45;;;5.78;;
71083;SDS011;58741;52.672;13.548;2023-01-24T09:50:02;10.13;;;5.25;;
71083;SDS011;58741;52.672;13.548;2023-01-24T09:52:37;11.13;;;6.40;;
71083;SDS011;58741;52.672;13.548;2023-01-24T09:55:08;9.27;;;4.75;;
71083;SDS011;58741;52.672;13.548;2023-01-24T09:57:49;12.13;;;5.75;;
71083;SDS011;58741;52.672;13.548;2023-01-24T10:00:29;12.02;;;5.40;;
71083;SDS011;58741;52.672;13.548;2023-01-24T10:02:57;14.95;;;6.07;;
71083;SDS011;58741;52.672;13.548;2023-01-24T10:05:32;18.90;;;6.25;;
71083;SDS011;58741;52.672;13.548;2023-01-24T10:25:09;11.45;;;5.50;;
71083;SDS011;58741;52.672;13.548;2023-01-24T10:27:42;21.98;;;5.28;;
71083;SDS011;58741;52.672;13.548;2023-01-24T10:30:12;12.13;;;5.65;;
71083;SDS011;58741;52.672;13.548;2023-01-24T10:32:45;15.23;;;5.45;;
71083;SDS011;58741;52.672;13.548;2023-01-24T10:35:16;18.83;;;6.45;;
71083;SDS011;58741;52.672;13.548;2023-01-24T10:37:47;12.60;;;5.75;;
71083;SDS011;58741;52.672;13.548;2023-01-24T10:40:20;14.17;;;5.70;;
71083;SDS011;58741;52.672;13.548;2023-01-24T10:42:49;16.15;;;6.18;;
71083;SDS011;58741;52.672;13.548;2023-01-24T10:48:11;6.68;;;4.28;;
71083;SDS011;58741;52.672;13.548;2023-01-24T10:50:48;13.13;;;4.88;;
71083;SDS011;58741;52.672;13.548;2023-01-24T10:53:21;12.02;;;4.55;;
71083;SDS011;58741;52.672;13.548;2023-01-24T10:56:02;11.50;;;6.13;;
71083;SDS011;58741;52.672;13.548;2023-01-24T10:58:36;17.48;;;6.55;;
71083;SDS011;58741;52.672;13.548;2023-01-24T11:01:16;17.70;;;5.97;;
71083;SDS011;58741;52.672;13.548;2023-01-24T11:03:43;12.95;;;5.57;;
71083;SDS011;58741;52.672;13.548;2023-01-24T11:06:22;26.95;;;7.35;;
71083;SDS011;58741;52.672;13.548;2023-01-24T11:08:54;12.85;;;5.28;;
71083;SDS011;58741;52.672;13.548;2023-01-24T11:11:28;19.65;;;6.63;;
71083;SDS011;58741;52.672;13.548;2023-01-24T11:13:56;13.00;;;5.47;;
71083;SDS011;58741;52.672;13.548;2023-01-24T11:16:27;16.13;;;4.65;;
71083;SDS011;58741;52.672;13.548;2023-01-24T11:18:58;12.57;;;6.07;;
71083;SDS011;58741;52.672;13.548;2023-01-24T11:21:26;17.55;;;6.50;;
71083;SDS011;58741;52.672;13.548;2023-01-24T11:24:00;14.77;;;5.70;;
71083;SDS011;58741;52.672;13.548;2023-01-24T11:26:34;20.40;;;5.20;;
71083;SDS011;58741;52.672;13.548;2023-01-24T11:29:06;11.65;;;5.28;;
71083;SDS011;58741;52.672;13.548;2023-01-24T11:31:44;16.50;;;6.60;;
71083;SDS011;58741;52.672;13.548;2023-01-24T11:37:04;12.15;;;4.95;;
71083;SDS011;58741;52.672;13.548;2023-01-24T11:45:55;9.82;;;4.97;;
71083;SDS011;58741;52.672;13.548;2023-01-24T11:48:57;15.45;;;3.90;;
71083;SDS011;58741;52.672;13.548;2023-01-24T11:51:50;16.30;;;5.30;;
71083;SDS011;58741;52.672;13.548;2023-01-24T11:57:02;7.63;;;4.10;;
71083;SDS011;58741;52.672;13.548;2023-01-24T11:59:43;15.30;;;5.15;;
71083;SDS011;58741;52.672;13.548;2023-01-24T12:11:01;15.35;;;4.85;;
71083;SDS011;58741;52.672;13.548;2023-01-24T12:17:04;7.43;;;4.55;;
71083;SDS011;58741;52.672;13.548;2023-01-24T12:19:56;8.95;;;4.97;;
71083;SDS011;58741;52.672;13.548;2023-01-24T12:22:29;15.80;;;7.72;;
71083;SDS011;58741;52.672;13.548;2023-01-24T12:25:00;19.65;;;5.88;;
71083;SDS011;58741;52.672;13.548;2023-01-24T12:27:38;13.80;;;6.45;;
71083;SDS011;58741;52.672;13.548;2023-01-24T12:30:15;15.07;;;6.45;;
71083;SDS011;58741;52.672;13.548;2023-01-24T12:33:10;10.75;;;5.15;;
71083;SDS011;58741;52.672;13.548;2023-01-24T12:35:54;13.07;;;5.65;;
71083;SDS011;58741;52.672;13.548;2023-01-24T12:38:29;14.65;;;5.65;;
71083;SDS011;58741;52.672;13.548;2023-01-24T12:41:11;13.20;;;5.68;;
71083;SDS011;58741;52.672;13.548;2023-01-24T12:43:52;10.93;;;4.70;;
71083;SDS011;58741;52.672;13.548;2023-01-24T12:51:53;12.52;;;5.22;;
71083;SDS011;58741;52.672;13.548;2023-01-24T12:54:32;10.50;;;4.45;;
71083;SDS011;58741;52.672;13.548;2023-01-24T12:59:49;7.30;;;4.32;;
71083;SDS011;58741;52.672;13.548;2023-01-24T13:02:27;10.40;;;4.30;;
71083;SDS011;58741;52.672;13.548;2023-01-24T13:05:20;9.20;;;4.13;;
71083;SDS011;58741;52.672;13.548;2023-01-24T13:08:15;14.25;;;4.38;;
71083;SDS011;58741;52.672;13.548;2023-01-24T13:13:59;7.38;;;4.55;;
71083;SDS011;58741;52.672;13.548;2023-01-24T13:19:13;5.15;;;3.38;;
71083;SDS011;58741;52.672;13.548;2023-01-24T13:27:25;15.65;;;4.68;;
71083;SDS011;58741;52.672;13.548;2023-01-24T13:30:12;5.82;;;3.60;;
71083;SDS011;58741;52.672;13.548;2023-01-24T13:32:40;10.15;;;4.15;;
71083;SDS011;58741;52.672;13.548;2023-01-24T13:35:20;9.68;;;4.53;;
71083;SDS011;58741;52.672;13.548;2023-01-24T13:37:48;11.43;;;4.10;;
71083;SDS011;58741;52.672;13.548;2023-01-24T13:40:26;9.88;;;4.53;;
71083;SDS011;58741;52.672;13.548;2023-01-24T13:47:48;13.27;;;3.63;;
71083;SDS011;58741;52.672;13.548;2023-01-24T13:50:20;8.27;;;3.72;;
71083;SDS011;58741;52.672;13.548;2023-01-24T13:52:48;6.57;;;3.72;;
71083;SDS011;58741;52.672;13.548;2023-01-24T13:58:13;10.05;;;4.50;;
71083;SDS011;58741;52.672;13.548;2023-01-24T14:00:48;12.95;;;4.03;;
71083;SDS011;58741;52.672;13.548;2023-01-24T14:03:32;7.60;;;3.40;;
71083;SDS011;58741;52.672;13.548;2023-01-24T14:16:13;8.15;;;3.47;;
71083;SDS011;58741;52.672;13.548;2023-01-24T14:21:52;5.35;;;3.22;;
71083;SDS011;58741;52.672;13.548;2023-01-24T14:24:27;7.35;;;4.03;;
71083;SDS011;58741;52.672;13.548;2023-01-24T14:26:55;13.00;;;4.28;;
71083;SDS011;58741;52.672;13.548;2023-01-24T14:29:26;7.75;;;4.05;;
71083;SDS011;58741;52.672;13.548;2023-01-24T14:32:03;7.10;;;4.30;;
71083;SDS011;58741;52.672;13.548;2023-01-24T14:34:43;9.90;;;4.25;;
71083;SDS011;58741;52.672;13.548;2023-01-24T14:37:16;8.60;;;4.18;;
71083;SDS011;58741;52.672;13.548;2023-01-24T14:39:42;7.38;;;4.40;;
71083;SDS011;58741;52.672;13.548;2023-01-24T14:42:12;13.68;;;4.55;;
71083;SDS011;58741;52.672;13.548;2023-01-24T14:44:50;9.60;;;4.13;;
71083;SDS011;58741;52.672;13.548;2023-01-24T14:47:22;7.65;;;3.70;;
71083;SDS011;58741;52.672;13.548;2023-01-24T14:49:51;11.00;;;4.05;;
71083;SDS011;58741;52.672;13.548;2023-01-24T14:52:26;8.02;;;3.35;;
71083;SDS011;58741;52.672;13.548;2023-01-24T14:54:58;7.60;;;3.72;;
71083;SDS011;58741;52.672;13.548;2023-01-24T14:57:29;11.93;;;4.05;;
71083;SDS011;58741;52.672;13.548;2023-01-24T15:00:04;6.10;;;3.83;;
71083;SDS011;58741;52.672;13.548;2023-01-24T15:02:37;9.23;;;3.85;;
71083;SDS011;58741;52.672;13.548;2023-01-24T15:05:20;6.60;;;3.45;;
71083;SDS011;58741;52.672;13.548;2023-01-24T15:07:51;7.03;;;3.25;;
71083;SDS011;58741;52.672;13.548;2023-01-24T15:10:24;4.68;;;3.08;;
71083;SDS011;58741;52.672;13.548;2023-01-24T15:12:55;5.95;;;3.63;;
71083;SDS011;58741;52.672;13.548;2023-01-24T15:15:24;6.47;;;3.80;;
71083;SDS011;58741;52.672;13.548;2023-01-24T15:17:57;10.45;;;4.45;;
71083;SDS011;58741;52.672;13.548;2023-01-24T15:20:26;8.13;;;3.78;;
71083;SDS011;58741;52.672;13.548;2023-01-24T15:22:54;10.68;;;3.47;;
71083;SDS011;58741;52.672;13.548;2023-01-24T15:30:34;10.10;;;3.60;;
71083;SDS011;58741;52.672;13.548;2023-01-24T15:33:00;8.32;;;4.07;;
71083;SDS011;58741;52.672;13.548;2023-01-24T15:35:46;14.32;;;5.10;;
71083;SDS011;58741;52.672;13.548;2023-01-24T15:38:28;6.72;;;3.53;;
71083;SDS011;58741;52.672;13.548;2023-01-24T15:41:02;6.15;;;3.78;;
71083;SDS011;58741;52.672;13.548;2023-01-24T15:46:33;6.97;;;3.38;;
71083;SDS011;58741;52.672;13.548;2023-01-24T15:49:26;6.10;;;3.47;;
71083;SDS011;58741;52.672;13.548;2023-01-24T15:54:26;4.78;;;2.83;;
71083;SDS011;58741;52.672;13.548;2023-01-24T15:56:53;6.15;;;3.55;;
71083;SDS011;58741;52.672;13.548;2023-01-24T15:59:20;10.88;;;3.90;;
71083;SDS011;58741;52.672;13.548;2023-01-24T16:01:47;6.13;;;3.05;;
71083;SDS011;58741;52.672;13.548;2023-01-24T16:04:16;7.30;;;3.70;;
71083;SDS011;58741;52.672;13.548;2023-01-24T16:06:44;4.97;;;3.17;;
71083;SDS011;58741;52.672;13.548;2023-01-24T16:09:10;5.90;;;2.67;;
71083;SDS011;58741;52.672;13.548;2023-01-24T16:11:36;5.85;;;3.20;;
71083;SDS011;58741;52.672;13.548;2023-01-24T16:14:03;9.55;;;3.08;;
71083;SDS011;58741;52.672;13.548;2023-01-24T16:16:32;7.13;;;3.22;;
71083;SDS011;58741;52.672;13.548;2023-01-24T16:18:58;3.58;;;2.40;;
71083;SDS011;58741;52.672;13.548;2023-01-24T16:21:24;6.85;;;3.03;;
71083;SDS011;58741;52.672;13.548;2023-01-24T16:23:49;6.53;;;2.95;;
71083;SDS011;58741;52.672;13.548;2023-01-24T16:26:22;5.35;;;2.92;;
71083;SDS011;58741;52.672;13.548;2023-01-24T16:28:49;3.72;;;2.58;;
71083;SDS011;58741;52.672;13.548;2023-01-24T16:31:15;8.85;;;3.72;;
71083;SDS011;58741;52.672;13.548;2023-01-24T16:33:41;5.55;;;2.92;;
71083;SDS011;58741;52.672;13.548;2023-01-24T16:36:08;4.45;;;2.72;;